Pagrindinis puslapis
METAR-TAF:

METAR-TAF

Oro uostai :

Peskara, Italija

platuma: 42-26N, ilguma: 014-12E, Aukštis: 10 m

Dabartinis oras

Ataskaita buvo paskelbta 53 minutes, ne 22:50 UTC
Vėjas 4 kt iš Pietvakarių
Temperatūra 6°C
Drėgmė 93%
Slėgis 1028 hPa
Matomumas: 9000 m

METAR: LIBP 072250Z AUTO 23004KT 9000 NCD 06/05 Q1028

Laikas: 01:43 (23:43 UTC)

Prognozė

Ataskaita buvo paskelbta 43 minutes, ne 23:00 UTC
Prognozė galioja nuo 08 metu 00 UTC su 08 metu 24 UTC
Vėjas 5 kt nuo kintamojo kryptimis
Matomumas 10 km arba daugiau
nėra debesų žemiau 1500 m ir nėra kamuolinių lietaus debesų
Tapsmas
nuo 08 metu 09 UTC su 08 metu 11 UTC
Vėjas 12 kt iš Šiaurės/Šiaurės Rytų
Tapsmas
nuo 08 metu 18 UTC su 08 metu 20 UTC
Vėjas 5 kt nuo kintamojo kryptimis

TAF: LIBP 072300Z 0800/0824 VRB05KT CAVOK BECMG 0809/0811 02012KT BECMG 0818/0820 VRB05KT

Orai ataskaitas ir orų prognozės (METAR, TAF).

turimą stotys yra geltonos ir raudonos taškus žemėlapyje.

Perkelti pele per norėdami pamatyti stoties vardą.

Tada spustelėkite, norėdami matyti oro stebėjimo ir prognozės.

Norėdami pakeisti žemėlapį: spustelėkite ant žalios mygtukų su juodo kryžiaus žemyn,; žalią mygtuką su brūkšneliu, jei norite nutolinti; arba žalių rodyklių gretimoms žemėlapius.


METAR-TAF: